sensor_id;sensor_type;location;lat;lon;timestamp;P1;durP1;ratioP1;P2;durP2;ratioP2
11439;SDS011;5776;51.814;4.510;2023-06-24T00:01:23;3.65;;;1.42;;
11439;SDS011;5776;51.814;4.510;2023-06-24T00:03:49;1.80;;;1.25;;
11439;SDS011;5776;51.814;4.510;2023-06-24T00:06:19;2.33;;;1.30;;
11439;SDS011;5776;51.814;4.510;2023-06-24T00:08:46;2.10;;;1.10;;
11439;SDS011;5776;51.814;4.510;2023-06-24T00:11:13;2.47;;;1.20;;
11439;SDS011;5776;51.814;4.510;2023-06-24T00:13:42;1.90;;;1.33;;
11439;SDS011;5776;51.814;4.510;2023-06-24T00:16:09;2.78;;;1.70;;
11439;SDS011;5776;51.814;4.510;2023-06-24T00:18:35;2.72;;;1.60;;
11439;SDS011;5776;51.814;4.510;2023-06-24T00:21:03;5.80;;;2.03;;
11439;SDS011;5776;51.814;4.510;2023-06-24T00:23:30;2.08;;;1.30;;
11439;SDS011;5776;51.814;4.510;2023-06-24T00:25:59;2.75;;;1.45;;
11439;SDS011;5776;51.814;4.510;2023-06-24T00:28:25;1.98;;;1.40;;
11439;SDS011;5776;51.814;4.510;2023-06-24T00:30:52;1.98;;;1.10;;
11439;SDS011;5776;51.814;4.510;2023-06-24T00:33:18;3.10;;;1.55;;
11439;SDS011;5776;51.814;4.510;2023-06-24T00:35:47;2.13;;;1.38;;
11439;SDS011;5776;51.814;4.510;2023-06-24T00:38:13;2.58;;;1.75;;
11439;SDS011;5776;51.814;4.510;2023-06-24T00:40:39;3.75;;;2.00;;
11439;SDS011;5776;51.814;4.510;2023-06-24T00:43:05;3.08;;;1.75;;
11439;SDS011;5776;51.814;4.510;2023-06-24T00:45:33;2.70;;;1.85;;
11439;SDS011;5776;51.814;4.510;2023-06-24T00:47:59;2.40;;;1.63;;
11439;SDS011;5776;51.814;4.510;2023-06-24T00:50:26;3.30;;;1.80;;
11439;SDS011;5776;51.814;4.510;2023-06-24T00:52:52;3.08;;;1.73;;
11439;SDS011;5776;51.814;4.510;2023-06-24T00:55:18;2.90;;;1.77;;
11439;SDS011;5776;51.814;4.510;2023-06-24T00:57:49;2.65;;;1.60;;
11439;SDS011;5776;51.814;4.510;2023-06-24T01:00:20;2.72;;;1.83;;
11439;SDS011;5776;51.814;4.510;2023-06-24T01:02:47;3.20;;;1.70;;
11439;SDS011;5776;51.814;4.510;2023-06-24T01:05:14;5.60;;;2.30;;
11439;SDS011;5776;51.814;4.510;2023-06-24T01:07:40;2.92;;;1.90;;
11439;SDS011;5776;51.814;4.510;2023-06-24T01:10:08;3.72;;;2.08;;
11439;SDS011;5776;51.814;4.510;2023-06-24T01:12:36;3.20;;;1.85;;
11439;SDS011;5776;51.814;4.510;2023-06-24T01:15:04;4.45;;;2.13;;
11439;SDS011;5776;51.814;4.510;2023-06-24T01:25:42;3.88;;;2.20;;
11439;SDS011;5776;51.814;4.510;2023-06-24T01:34:01;5.25;;;2.00;;
11439;SDS011;5776;51.814;4.510;2023-06-24T01:36:41;3.35;;;2.05;;
11439;SDS011;5776;51.814;4.510;2023-06-24T01:39:12;4.13;;;2.28;;
11439;SDS011;5776;51.814;4.510;2023-06-24T01:41:47;2.47;;;1.80;;
11439;SDS011;5776;51.814;4.510;2023-06-24T01:44:19;3.65;;;2.03;;
11439;SDS011;5776;51.814;4.510;2023-06-24T01:46:46;3.33;;;2.08;;
11439;SDS011;5776;51.814;4.510;2023-06-24T01:49:16;3.08;;;2.03;;
11439;SDS011;5776;51.814;4.510;2023-06-24T01:51:46;3.78;;;2.25;;
11439;SDS011;5776;51.814;4.510;2023-06-24T01:54:14;3.70;;;1.92;;
11439;SDS011;5776;51.814;4.510;2023-06-24T01:56:44;2.80;;;2.00;;
11439;SDS011;5776;51.814;4.510;2023-06-24T01:59:13;2.35;;;1.90;;
11439;SDS011;5776;51.814;4.510;2023-06-24T02:01:42;4.07;;;1.98;;
11439;SDS011;5776;51.814;4.510;2023-06-24T02:04:09;3.47;;;2.15;;
11439;SDS011;5776;51.814;4.510;2023-06-24T02:06:37;2.78;;;2.05;;
11439;SDS011;5776;51.814;4.510;2023-06-24T02:09:06;5.35;;;2.58;;
11439;SDS011;5776;51.814;4.510;2023-06-24T02:11:34;3.40;;;2.63;;
11439;SDS011;5776;51.814;4.510;2023-06-24T02:14:01;3.08;;;2.20;;
11439;SDS011;5776;51.814;4.510;2023-06-24T02:16:28;4.45;;;2.30;;
11439;SDS011;5776;51.814;4.510;2023-06-24T02:18:56;3.17;;;2.05;;
11439;SDS011;5776;51.814;4.510;2023-06-24T02:21:22;2.92;;;2.00;;
11439;SDS011;5776;51.814;4.510;2023-06-24T02:23:51;2.13;;;1.80;;
11439;SDS011;5776;51.814;4.510;2023-06-24T02:26:18;3.70;;;2.47;;
11439;SDS011;5776;51.814;4.510;2023-06-24T02:28:45;4.40;;;2.38;;
11439;SDS011;5776;51.814;4.510;2023-06-24T02:31:11;3.45;;;2.22;;
11439;SDS011;5776;51.814;4.510;2023-06-24T02:33:38;3.58;;;2.40;;
11439;SDS011;5776;51.814;4.510;2023-06-24T02:36:05;3.67;;;2.67;;
11439;SDS011;5776;51.814;4.510;2023-06-24T02:38:31;3.83;;;2.60;;
11439;SDS011;5776;51.814;4.510;2023-06-24T02:40:57;3.70;;;2.70;;
11439;SDS011;5776;51.814;4.510;2023-06-24T02:43:24;3.72;;;2.22;;
11439;SDS011;5776;51.814;4.510;2023-06-24T02:45:50;5.75;;;2.25;;
11439;SDS011;5776;51.814;4.510;2023-06-24T02:48:17;5.28;;;2.90;;
11439;SDS011;5776;51.814;4.510;2023-06-24T02:50:44;4.75;;;2.90;;
11439;SDS011;5776;51.814;4.510;2023-06-24T02:53:12;3.90;;;3.03;;
11439;SDS011;5776;51.814;4.510;2023-06-24T02:55:39;5.03;;;2.80;;
11439;SDS011;5776;51.814;4.510;2023-06-24T02:58:07;5.38;;;2.60;;
11439;SDS011;5776;51.814;4.510;2023-06-24T03:00:35;3.35;;;1.80;;
11439;SDS011;5776;51.814;4.510;2023-06-24T03:03:02;3.00;;;2.00;;
11439;SDS011;5776;51.814;4.510;2023-06-24T03:05:30;3.42;;;2.22;;
11439;SDS011;5776;51.814;4.510;2023-06-24T03:07:58;2.88;;;1.83;;
11439;SDS011;5776;51.814;4.510;2023-06-24T03:10:24;3.20;;;2.42;;
11439;SDS011;5776;51.814;4.510;2023-06-24T03:12:51;3.17;;;2.13;;
11439;SDS011;5776;51.814;4.510;2023-06-24T03:15:17;3.03;;;2.42;;
11439;SDS011;5776;51.814;4.510;2023-06-24T03:17:43;5.63;;;3.20;;
11439;SDS011;5776;51.814;4.510;2023-06-24T03:20:10;5.43;;;2.92;;
11439;SDS011;5776;51.814;4.510;2023-06-24T03:22:36;4.80;;;2.75;;
11439;SDS011;5776;51.814;4.510;2023-06-24T03:25:02;4.10;;;2.95;;
11439;SDS011;5776;51.814;4.510;2023-06-24T03:27:28;5.30;;;2.78;;
11439;SDS011;5776;51.814;4.510;2023-06-24T03:29:54;4.38;;;2.53;;
11439;SDS011;5776;51.814;4.510;2023-06-24T03:32:20;4.32;;;2.10;;
11439;SDS011;5776;51.814;4.510;2023-06-24T03:34:46;4.05;;;2.40;;
11439;SDS011;5776;51.814;4.510;2023-06-24T03:37:12;3.38;;;2.45;;
11439;SDS011;5776;51.814;4.510;2023-06-24T03:39:38;3.92;;;2.58;;
11439;SDS011;5776;51.814;4.510;2023-06-24T03:42:04;4.95;;;2.17;;
11439;SDS011;5776;51.814;4.510;2023-06-24T03:44:29;6.55;;;2.90;;
11439;SDS011;5776;51.814;4.510;2023-06-24T03:46:55;5.97;;;2.83;;
11439;SDS011;5776;51.814;4.510;2023-06-24T03:49:21;4.90;;;3.08;;
11439;SDS011;5776;51.814;4.510;2023-06-24T03:51:47;5.95;;;2.95;;
11439;SDS011;5776;51.814;4.510;2023-06-24T03:54:13;3.50;;;2.35;;
11439;SDS011;5776;51.814;4.510;2023-06-24T03:56:39;2.92;;;1.90;;
11439;SDS011;5776;51.814;4.510;2023-06-24T03:59:05;4.38;;;2.47;;
11439;SDS011;5776;51.814;4.510;2023-06-24T04:01:31;6.13;;;2.80;;
11439;SDS011;5776;51.814;4.510;2023-06-24T04:03:57;5.88;;;3.15;;
11439;SDS011;5776;51.814;4.510;2023-06-24T04:06:23;5.18;;;3.47;;
11439;SDS011;5776;51.814;4.510;2023-06-24T04:08:49;5.00;;;3.28;;
11439;SDS011;5776;51.814;4.510;2023-06-24T04:11:18;6.20;;;3.17;;
11439;SDS011;5776;51.814;4.510;2023-06-24T04:13:44;3.25;;;2.42;;
11439;SDS011;5776;51.814;4.510;2023-06-24T04:16:11;3.30;;;2.38;;
11439;SDS011;5776;51.814;4.510;2023-06-24T04:18:37;5.32;;;2.80;;
11439;SDS011;5776;51.814;4.510;2023-06-24T04:21:05;3.90;;;2.30;;
11439;SDS011;5776;51.814;4.510;2023-06-24T04:23:34;6.47;;;2.80;;
11439;SDS011;5776;51.814;4.510;2023-06-24T04:26:00;3.75;;;2.08;;
11439;SDS011;5776;51.814;4.510;2023-06-24T04:28:26;4.50;;;2.55;;
11439;SDS011;5776;51.814;4.510;2023-06-24T04:30:52;4.22;;;2.47;;
11439;SDS011;5776;51.814;4.510;2023-06-24T04:33:18;3.85;;;2.90;;
11439;SDS011;5776;51.814;4.510;2023-06-24T04:35:44;4.70;;;2.63;;
11439;SDS011;5776;51.814;4.510;2023-06-24T04:38:10;3.20;;;2.22;;
11439;SDS011;5776;51.814;4.510;2023-06-24T04:40:36;3.20;;;2.10;;
11439;SDS011;5776;51.814;4.510;2023-06-24T04:43:02;4.68;;;2.65;;
11439;SDS011;5776;51.814;4.510;2023-06-24T04:45:28;7.80;;;2.58;;
11439;SDS011;5776;51.814;4.510;2023-06-24T04:47:54;4.20;;;2.78;;
11439;SDS011;5776;51.814;4.510;2023-06-24T04:50:20;5.55;;;2.97;;
11439;SDS011;5776;51.814;4.510;2023-06-24T04:52:51;5.13;;;3.42;;
11439;SDS011;5776;51.814;4.510;2023-06-24T04:55:18;6.90;;;3.85;;
11439;SDS011;5776;51.814;4.510;2023-06-24T04:57:44;5.97;;;3.65;;
11439;SDS011;5776;51.814;4.510;2023-06-24T05:00:11;5.97;;;4.10;;
11439;SDS011;5776;51.814;4.510;2023-06-24T05:02:36;7.03;;;4.10;;
11439;SDS011;5776;51.814;4.510;2023-06-24T05:05:02;9.63;;;3.90;;
11439;SDS011;5776;51.814;4.510;2023-06-24T05:07:28;7.82;;;4.38;;
11439;SDS011;5776;51.814;4.510;2023-06-24T05:09:55;7.57;;;4.25;;
11439;SDS011;5776;51.814;4.510;2023-06-24T05:12:21;9.02;;;4.30;;
11439;SDS011;5776;51.814;4.510;2023-06-24T05:14:50;9.48;;;4.93;;
11439;SDS011;5776;51.814;4.510;2023-06-24T05:17:20;7.47;;;4.82;;
11439;SDS011;5776;51.814;4.510;2023-06-24T05:19:45;11.40;;;4.72;;
11439;SDS011;5776;51.814;4.510;2023-06-24T05:22:11;7.82;;;4.97;;
11439;SDS011;5776;51.814;4.510;2023-06-24T05:24:37;8.85;;;5.15;;
11439;SDS011;5776;51.814;4.510;2023-06-24T05:27:04;8.65;;;5.22;;
11439;SDS011;5776;51.814;4.510;2023-06-24T05:29:31;9.82;;;4.90;;
11439;SDS011;5776;51.814;4.510;2023-06-24T05:31:58;7.72;;;4.97;;
11439;SDS011;5776;51.814;4.510;2023-06-24T05:34:25;8.70;;;5.30;;
11439;SDS011;5776;51.814;4.510;2023-06-24T05:36:51;7.85;;;5.43;;
11439;SDS011;5776;51.814;4.510;2023-06-24T05:39:17;10.45;;;5.65;;
11439;SDS011;5776;51.814;4.510;2023-06-24T05:41:42;10.05;;;5.72;;
11439;SDS011;5776;51.814;4.510;2023-06-24T05:44:09;11.18;;;5.88;;
11439;SDS011;5776;51.814;4.510;2023-06-24T05:46:35;8.65;;;5.35;;
11439;SDS011;5776;51.814;4.510;2023-06-24T05:49:02;8.77;;;5.63;;
11439;SDS011;5776;51.814;4.510;2023-06-24T05:51:28;8.23;;;5.57;;
11439;SDS011;5776;51.814;4.510;2023-06-24T05:53:55;9.82;;;5.22;;
11439;SDS011;5776;51.814;4.510;2023-06-24T05:56:21;6.95;;;5.03;;
11439;SDS011;5776;51.814;4.510;2023-06-24T05:58:47;8.90;;;5.82;;
11439;SDS011;5776;51.814;4.510;2023-06-24T06:01:14;9.93;;;6.20;;
11439;SDS011;5776;51.814;4.510;2023-06-24T06:03:40;11.10;;;6.25;;
11439;SDS011;5776;51.814;4.510;2023-06-24T06:06:06;6.85;;;4.95;;
11439;SDS011;5776;51.814;4.510;2023-06-24T06:08:33;10.75;;;6.30;;
11439;SDS011;5776;51.814;4.510;2023-06-24T06:10:59;9.07;;;6.47;;
11439;SDS011;5776;51.814;4.510;2023-06-24T06:13:28;10.15;;;5.72;;
11439;SDS011;5776;51.814;4.510;2023-06-24T06:15:54;9.30;;;5.80;;
11439;SDS011;5776;51.814;4.510;2023-06-24T06:18:20;10.45;;;5.88;;
11439;SDS011;5776;51.814;4.510;2023-06-24T06:20:46;10.60;;;6.15;;
11439;SDS011;5776;51.814;4.510;2023-06-24T06:23:12;9.90;;;5.63;;
11439;SDS011;5776;51.814;4.510;2023-06-24T06:25:38;12.25;;;6.15;;
11439;SDS011;5776;51.814;4.510;2023-06-24T06:28:04;11.82;;;6.45;;
11439;SDS011;5776;51.814;4.510;2023-06-24T06:30:30;10.40;;;5.72;;
11439;SDS011;5776;51.814;4.510;2023-06-24T06:32:57;7.82;;;5.10;;
11439;SDS011;5776;51.814;4.510;2023-06-24T06:35:23;9.05;;;5.72;;
11439;SDS011;5776;51.814;4.510;2023-06-24T06:37:48;12.00;;;5.80;;
11439;SDS011;5776;51.814;4.510;2023-06-24T06:40:18;10.60;;;5.75;;
11439;SDS011;5776;51.814;4.510;2023-06-24T06:42:45;10.68;;;6.30;;
11439;SDS011;5776;51.814;4.510;2023-06-24T06:45:11;11.60;;;6.30;;
11439;SDS011;5776;51.814;4.510;2023-06-24T06:47:37;8.10;;;5.20;;
11439;SDS011;5776;51.814;4.510;2023-06-24T06:50:03;12.60;;;7.22;;
11439;SDS011;5776;51.814;4.510;2023-06-24T06:52:29;10.13;;;5.78;;
11439;SDS011;5776;51.814;4.510;2023-06-24T06:54:55;10.07;;;6.30;;
11439;SDS011;5776;51.814;4.510;2023-06-24T06:57:22;7.35;;;5.35;;
11439;SDS011;5776;51.814;4.510;2023-06-24T06:59:48;9.88;;;6.28;;
11439;SDS011;5776;51.814;4.510;2023-06-24T07:02:16;9.05;;;5.35;;
11439;SDS011;5776;51.814;4.510;2023-06-24T07:04:45;9.32;;;6.50;;
11439;SDS011;5776;51.814;4.510;2023-06-24T07:07:13;9.25;;;6.53;;
11439;SDS011;5776;51.814;4.510;2023-06-24T07:09:39;12.45;;;7.15;;
11439;SDS011;5776;51.814;4.510;2023-06-24T07:12:06;10.57;;;6.32;;
11439;SDS011;5776;51.814;4.510;2023-06-24T07:14:32;10.98;;;6.88;;
11439;SDS011;5776;51.814;4.510;2023-06-24T07:16:58;13.40;;;7.03;;
11439;SDS011;5776;51.814;4.510;2023-06-24T07:19:24;12.35;;;7.18;;
11439;SDS011;5776;51.814;4.510;2023-06-24T07:21:51;11.43;;;6.93;;
11439;SDS011;5776;51.814;4.510;2023-06-24T07:24:17;12.32;;;7.28;;
11439;SDS011;5776;51.814;4.510;2023-06-24T07:26:43;16.60;;;7.43;;
11439;SDS011;5776;51.814;4.510;2023-06-24T07:29:09;12.68;;;7.07;;
11439;SDS011;5776;51.814;4.510;2023-06-24T07:31:35;14.63;;;7.25;;
11439;SDS011;5776;51.814;4.510;2023-06-24T07:34:01;9.90;;;6.65;;
11439;SDS011;5776;51.814;4.510;2023-06-24T07:36:28;9.40;;;6.45;;
11439;SDS011;5776;51.814;4.510;2023-06-24T07:38:54;12.98;;;7.13;;
11439;SDS011;5776;51.814;4.510;2023-06-24T07:41:20;12.30;;;6.50;;
11439;SDS011;5776;51.814;4.510;2023-06-24T07:43:46;11.05;;;6.55;;
11439;SDS011;5776;51.814;4.510;2023-06-24T07:46:12;10.70;;;6.25;;
11439;SDS011;5776;51.814;4.510;2023-06-24T07:48:38;13.70;;;7.05;;
11439;SDS011;5776;51.814;4.510;2023-06-24T07:51:03;13.63;;;6.60;;
11439;SDS011;5776;51.814;4.510;2023-06-24T07:53:29;12.98;;;6.40;;
11439;SDS011;5776;51.814;4.510;2023-06-24T07:55:55;9.50;;;5.78;;
11439;SDS011;5776;51.814;4.510;2023-06-24T07:58:21;14.45;;;6.07;;
11439;SDS011;5776;51.814;4.510;2023-06-24T08:00:47;9.77;;;5.68;;
11439;SDS011;5776;51.814;4.510;2023-06-24T08:03:13;8.10;;;4.97;;
11439;SDS011;5776;51.814;4.510;2023-06-24T08:05:40;9.65;;;5.90;;
11439;SDS011;5776;51.814;4.510;2023-06-24T08:08:06;16.20;;;7.40;;
11439;SDS011;5776;51.814;4.510;2023-06-24T08:10:33;11.32;;;6.18;;
11439;SDS011;5776;51.814;4.510;2023-06-24T08:12:59;11.93;;;7.15;;
11439;SDS011;5776;51.814;4.510;2023-06-24T08:15:25;11.55;;;7.55;;
11439;SDS011;5776;51.814;4.510;2023-06-24T08:17:51;10.32;;;6.80;;
11439;SDS011;5776;51.814;4.510;2023-06-24T08:20:21;14.80;;;7.78;;
11439;SDS011;5776;51.814;4.510;2023-06-24T08:22:48;10.55;;;7.28;;
11439;SDS011;5776;51.814;4.510;2023-06-24T08:25:14;12.98;;;7.93;;
11439;SDS011;5776;51.814;4.510;2023-06-24T08:27:41;9.55;;;5.43;;
11439;SDS011;5776;51.814;4.510;2023-06-24T08:30:08;11.88;;;6.63;;
11439;SDS011;5776;51.814;4.510;2023-06-24T08:32:34;14.27;;;7.80;;
11439;SDS011;5776;51.814;4.510;2023-06-24T08:35:00;13.18;;;7.38;;
11439;SDS011;5776;51.814;4.510;2023-06-24T08:37:26;10.32;;;6.65;;
11439;SDS011;5776;51.814;4.510;2023-06-24T08:39:53;9.27;;;6.55;;
11439;SDS011;5776;51.814;4.510;2023-06-24T08:42:19;12.13;;;6.93;;
11439;SDS011;5776;51.814;4.510;2023-06-24T08:44:45;9.95;;;7.07;;
11439;SDS011;5776;51.814;4.510;2023-06-24T08:47:11;15.10;;;7.70;;
11439;SDS011;5776;51.814;4.510;2023-06-24T08:49:48;11.80;;;5.85;;
11439;SDS011;5776;51.814;4.510;2023-06-24T08:52:21;10.32;;;6.00;;
11439;SDS011;5776;51.814;4.510;2023-06-24T08:54:52;9.73;;;6.80;;
11439;SDS011;5776;51.814;4.510;2023-06-24T08:57:23;10.48;;;6.10;;
11439;SDS011;5776;51.814;4.510;2023-06-24T08:59:49;10.95;;;6.10;;
11439;SDS011;5776;51.814;4.510;2023-06-24T09:02:15;9.05;;;6.05;;
11439;SDS011;5776;51.814;4.510;2023-06-24T09:04:40;11.48;;;6.50;;
11439;SDS011;5776;51.814;4.510;2023-06-24T09:07:07;8.63;;;4.75;;
11439;SDS011;5776;51.814;4.510;2023-06-24T09:09:33;10.27;;;6.85;;
11439;SDS011;5776;51.814;4.510;2023-06-24T09:12:10;11.07;;;7.15;;
11439;SDS011;5776;51.814;4.510;2023-06-24T09:14:37;11.02;;;7.22;;
11439;SDS011;5776;51.814;4.510;2023-06-24T09:17:04;10.85;;;6.72;;
11439;SDS011;5776;51.814;4.510;2023-06-24T09:19:35;14.68;;;7.03;;
11439;SDS011;5776;51.814;4.510;2023-06-24T09:22:02;15.13;;;6.57;;
11439;SDS011;5776;51.814;4.510;2023-06-24T09:24:30;12.80;;;6.88;;
11439;SDS011;5776;51.814;4.510;2023-06-24T09:26:57;13.95;;;8.85;;
11439;SDS011;5776;51.814;4.510;2023-06-24T09:29:26;13.95;;;7.72;;
11439;SDS011;5776;51.814;4.510;2023-06-24T09:31:53;12.13;;;6.80;;
11439;SDS011;5776;51.814;4.510;2023-06-24T09:34:21;8.82;;;5.88;;
11439;SDS011;5776;51.814;4.510;2023-06-24T09:36:51;15.88;;;7.78;;
11439;SDS011;5776;51.814;4.510;2023-06-24T09:39:18;12.65;;;7.68;;
11439;SDS011;5776;51.814;4.510;2023-06-24T09:41:50;9.85;;;5.80;;
11439;SDS011;5776;51.814;4.510;2023-06-24T09:44:16;13.13;;;8.00;;
11439;SDS011;5776;51.814;4.510;2023-06-24T09:46:45;11.05;;;7.28;;
11439;SDS011;5776;51.814;4.510;2023-06-24T09:49:11;12.50;;;7.68;;
11439;SDS011;5776;51.814;4.510;2023-06-24T09:51:38;14.68;;;7.60;;
11439;SDS011;5776;51.814;4.510;2023-06-24T09:54:05;10.40;;;6.85;;
11439;SDS011;5776;51.814;4.510;2023-06-24T09:56:35;15.65;;;8.43;;
11439;SDS011;5776;51.814;4.510;2023-06-24T09:59:05;13.07;;;7.53;;
11439;SDS011;5776;51.814;4.510;2023-06-24T10:01:32;12.07;;;7.13;;
11439;SDS011;5776;51.814;4.510;2023-06-24T10:04:04;13.18;;;7.22;;
11439;SDS011;5776;51.814;4.510;2023-06-24T10:06:31;12.80;;;8.18;;
11439;SDS011;5776;51.814;4.510;2023-06-24T10:08:58;14.90;;;7.78;;
11439;SDS011;5776;51.814;4.510;2023-06-24T10:11:25;11.63;;;7.10;;
11439;SDS011;5776;51.814;4.510;2023-06-24T10:13:51;13.30;;;7.78;;
11439;SDS011;5776;51.814;4.510;2023-06-24T10:16:17;13.68;;;8.07;;
11439;SDS011;5776;51.814;4.510;2023-06-24T10:18:44;12.68;;;7.32;;
11439;SDS011;5776;51.814;4.510;2023-06-24T10:21:12;16.48;;;9.43;;
11439;SDS011;5776;51.814;4.510;2023-06-24T10:23:41;17.17;;;9.80;;
11439;SDS011;5776;51.814;4.510;2023-06-24T10:26:35;14.43;;;9.07;;
11439;SDS011;5776;51.814;4.510;2023-06-24T10:36:53;16.38;;;7.93;;
11439;SDS011;5776;51.814;4.510;2023-06-24T10:39:38;11.43;;;7.60;;
11439;SDS011;5776;51.814;4.510;2023-06-24T10:44:49;15.98;;;8.32;;
11439;SDS011;5776;51.814;4.510;2023-06-24T10:47:16;11.13;;;7.53;;
11439;SDS011;5776;51.814;4.510;2023-06-24T10:49:43;13.02;;;6.47;;
11439;SDS011;5776;51.814;4.510;2023-06-24T10:52:11;14.00;;;7.85;;
11439;SDS011;5776;51.814;4.510;2023-06-24T10:54:39;15.40;;;7.32;;
11439;SDS011;5776;51.814;4.510;2023-06-24T10:57:05;11.23;;;7.00;;
11439;SDS011;5776;51.814;4.510;2023-06-24T10:59:44;11.55;;;7.78;;
11439;SDS011;5776;51.814;4.510;2023-06-24T11:02:16;12.80;;;6.53;;
11439;SDS011;5776;51.814;4.510;2023-06-24T11:04:48;11.57;;;7.35;;
11439;SDS011;5776;51.814;4.510;2023-06-24T11:07:16;11.48;;;6.70;;
11439;SDS011;5776;51.814;4.510;2023-06-24T11:12:22;10.00;;;5.60;;
11439;SDS011;5776;51.814;4.510;2023-06-24T11:14:49;14.48;;;7.30;;
11439;SDS011;5776;51.814;4.510;2023-06-24T11:17:15;10.10;;;5.53;;
11439;SDS011;5776;51.814;4.510;2023-06-24T11:19:41;8.88;;;5.78;;
11439;SDS011;5776;51.814;4.510;2023-06-24T11:22:09;9.77;;;5.88;;
11439;SDS011;5776;51.814;4.510;2023-06-24T11:24:35;10.85;;;7.07;;
11439;SDS011;5776;51.814;4.510;2023-06-24T11:27:01;8.82;;;5.00;;
11439;SDS011;5776;51.814;4.510;2023-06-24T11:29:31;7.95;;;5.32;;
11439;SDS011;5776;51.814;4.510;2023-06-24T11:31:58;7.50;;;4.65;;
11439;SDS011;5776;51.814;4.510;2023-06-24T11:34:24;11.05;;;5.10;;
11439;SDS011;5776;51.814;4.510;2023-06-24T11:36:50;6.00;;;4.25;;
11439;SDS011;5776;51.814;4.510;2023-06-24T11:39:22;11.45;;;4.63;;
11439;SDS011;5776;51.814;4.510;2023-06-24T11:41:51;10.65;;;4.20;;
11439;SDS011;5776;51.814;4.510;2023-06-24T11:44:17;5.75;;;4.05;;
11439;SDS011;5776;51.814;4.510;2023-06-24T11:46:48;7.93;;;4.05;;
11439;SDS011;5776;51.814;4.510;2023-06-24T11:49:15;7.05;;;4.10;;
11439;SDS011;5776;51.814;4.510;2023-06-24T11:51:50;7.07;;;4.35;;
11439;SDS011;5776;51.814;4.510;2023-06-24T11:54:19;5.38;;;3.58;;
11439;SDS011;5776;51.814;4.510;2023-06-24T11:56:50;9.35;;;4.68;;
11439;SDS011;5776;51.814;4.510;2023-06-24T11:59:23;9.90;;;4.65;;
11439;SDS011;5776;51.814;4.510;2023-06-24T12:01:55;9.43;;;4.50;;
11439;SDS011;5776;51.814;4.510;2023-06-24T12:04:29;6.13;;;4.30;;
11439;SDS011;5776;51.814;4.510;2023-06-24T12:06:57;8.07;;;3.75;;
11439;SDS011;5776;51.814;4.510;2023-06-24T12:09:23;4.00;;;2.72;;
11439;SDS011;5776;51.814;4.510;2023-06-24T12:11:50;7.60;;;4.85;;
11439;SDS011;5776;51.814;4.510;2023-06-24T12:14:16;10.35;;;5.75;;
11439;SDS011;5776;51.814;4.510;2023-06-24T12:16:42;8.32;;;4.93;;
11439;SDS011;5776;51.814;4.510;2023-06-24T12:19:08;7.75;;;5.05;;
11439;SDS011;5776;51.814;4.510;2023-06-24T12:21:34;9.50;;;5.38;;
11439;SDS011;5776;51.814;4.510;2023-06-24T12:24:01;10.95;;;5.82;;
11439;SDS011;5776;51.814;4.510;2023-06-24T12:26:27;9.45;;;5.82;;
11439;SDS011;5776;51.814;4.510;2023-06-24T12:28:54;9.05;;;6.05;;
11439;SDS011;5776;51.814;4.510;2023-06-24T12:31:21;7.65;;;5.22;;
11439;SDS011;5776;51.814;4.510;2023-06-24T12:33:47;11.20;;;5.72;;
11439;SDS011;5776;51.814;4.510;2023-06-24T12:36:12;9.93;;;5.25;;
11439;SDS011;5776;51.814;4.510;2023-06-24T12:38:38;8.25;;;5.28;;
11439;SDS011;5776;51.814;4.510;2023-06-24T12:41:04;11.18;;;5.35;;
11439;SDS011;5776;51.814;4.510;2023-06-24T12:43:31;10.20;;;5.55;;
11439;SDS011;5776;51.814;4.510;2023-06-24T12:45:57;8.30;;;5.10;;
11439;SDS011;5776;51.814;4.510;2023-06-24T12:48:23;7.40;;;4.70;;
11439;SDS011;5776;51.814;4.510;2023-06-24T12:50:49;7.47;;;4.97;;
11439;SDS011;5776;51.814;4.510;2023-06-24T12:53:18;10.38;;;4.72;;
11439;SDS011;5776;51.814;4.510;2023-06-24T12:55:45;8.27;;;4.35;;
11439;SDS011;5776;51.814;4.510;2023-06-24T12:58:12;5.30;;;3.97;;
11439;SDS011;5776;51.814;4.510;2023-06-24T13:00:40;7.35;;;4.38;;
11439;SDS011;5776;51.814;4.510;2023-06-24T13:03:06;8.80;;;4.60;;
11439;SDS011;5776;51.814;4.510;2023-06-24T13:05:32;9.20;;;4.88;;
11439;SDS011;5776;51.814;4.510;2023-06-24T13:07:58;8.73;;;5.13;;
11439;SDS011;5776;51.814;4.510;2023-06-24T13:10:24;7.22;;;4.20;;
11439;SDS011;5776;51.814;4.510;2023-06-24T13:12:50;8.23;;;3.85;;
11439;SDS011;5776;51.814;4.510;2023-06-24T13:15:15;6.15;;;3.67;;
11439;SDS011;5776;51.814;4.510;2023-06-24T13:17:42;5.72;;;3.72;;
11439;SDS011;5776;51.814;4.510;2023-06-24T13:20:08;6.20;;;3.80;;
11439;SDS011;5776;51.814;4.510;2023-06-24T13:22:35;10.00;;;3.75;;
11439;SDS011;5776;51.814;4.510;2023-06-24T13:25:01;7.95;;;4.82;;
11439;SDS011;5776;51.814;4.510;2023-06-24T13:27:27;6.68;;;3.97;;
11439;SDS011;5776;51.814;4.510;2023-06-24T13:29:53;5.85;;;3.60;;
11439;SDS011;5776;51.814;4.510;2023-06-24T13:32:18;8.85;;;4.53;;
11439;SDS011;5776;51.814;4.510;2023-06-24T13:34:45;11.32;;;5.97;;
11439;SDS011;5776;51.814;4.510;2023-06-24T13:37:11;8.50;;;4.97;;
11439;SDS011;5776;51.814;4.510;2023-06-24T13:39:37;10.48;;;4.90;;
11439;SDS011;5776;51.814;4.510;2023-06-24T13:42:03;8.73;;;5.53;;
11439;SDS011;5776;51.814;4.510;2023-06-24T13:44:29;8.73;;;5.20;;
11439;SDS011;5776;51.814;4.510;2023-06-24T13:46:55;7.22;;;4.00;;
11439;SDS011;5776;51.814;4.510;2023-06-24T13:49:21;12.77;;;5.93;;
11439;SDS011;5776;51.814;4.510;2023-06-24T13:51:48;7.70;;;5.20;;
11439;SDS011;5776;51.814;4.510;2023-06-24T13:54:13;9.75;;;4.97;;
11439;SDS011;5776;51.814;4.510;2023-06-24T13:56:39;8.00;;;5.20;;
11439;SDS011;5776;51.814;4.510;2023-06-24T13:59:05;8.32;;;4.65;;
11439;SDS011;5776;51.814;4.510;2023-06-24T14:01:31;7.30;;;4.20;;
11439;SDS011;5776;51.814;4.510;2023-06-24T14:03:57;5.40;;;3.67;;
11439;SDS011;5776;51.814;4.510;2023-06-24T14:06:23;6.35;;;4.28;;
11439;SDS011;5776;51.814;4.510;2023-06-24T14:08:50;6.10;;;4.07;;
11439;SDS011;5776;51.814;4.510;2023-06-24T14:11:16;8.00;;;4.32;;
11439;SDS011;5776;51.814;4.510;2023-06-24T14:13:43;7.90;;;5.07;;
11439;SDS011;5776;51.814;4.510;2023-06-24T14:16:10;7.93;;;4.57;;
11439;SDS011;5776;51.814;4.510;2023-06-24T14:18:36;6.57;;;3.90;;
11439;SDS011;5776;51.814;4.510;2023-06-24T14:21:03;7.75;;;4.93;;
11439;SDS011;5776;51.814;4.510;2023-06-24T14:23:31;8.88;;;4.95;;
11439;SDS011;5776;51.814;4.510;2023-06-24T14:25:58;8.50;;;4.20;;
11439;SDS011;5776;51.814;4.510;2023-06-24T14:28:26;8.38;;;4.07;;
11439;SDS011;5776;51.814;4.510;2023-06-24T14:30:52;7.18;;;4.40;;
11439;SDS011;5776;51.814;4.510;2023-06-24T14:33:18;7.93;;;4.57;;
11439;SDS011;5776;51.814;4.510;2023-06-24T14:35:44;7.38;;;4.35;;
11439;SDS011;5776;51.814;4.510;2023-06-24T14:38:10;8.15;;;5.15;;
11439;SDS011;5776;51.814;4.510;2023-06-24T14:40:36;7.88;;;4.30;;
11439;SDS011;5776;51.814;4.510;2023-06-24T14:43:02;7.10;;;4.90;;
11439;SDS011;5776;51.814;4.510;2023-06-24T14:45:28;8.10;;;4.95;;
11439;SDS011;5776;51.814;4.510;2023-06-24T14:47:55;7.00;;;4.55;;
11439;SDS011;5776;51.814;4.510;2023-06-24T14:50:22;8.73;;;5.93;;
11439;SDS011;5776;51.814;4.510;2023-06-24T14:52:48;8.15;;;5.57;;
11439;SDS011;5776;51.814;4.510;2023-06-24T14:55:14;7.47;;;6.05;;
11439;SDS011;5776;51.814;4.510;2023-06-24T14:57:40;11.70;;;5.45;;
11439;SDS011;5776;51.814;4.510;2023-06-24T15:00:06;9.40;;;5.22;;
11439;SDS011;5776;51.814;4.510;2023-06-24T15:02:33;9.10;;;5.38;;
11439;SDS011;5776;51.814;4.510;2023-06-24T15:05:00;9.02;;;5.60;;
11439;SDS011;5776;51.814;4.510;2023-06-24T15:07:27;6.63;;;4.85;;
11439;SDS011;5776;51.814;4.510;2023-06-24T15:09:52;11.50;;;5.50;;
11439;SDS011;5776;51.814;4.510;2023-06-24T15:12:18;9.02;;;5.88;;
11439;SDS011;5776;51.814;4.510;2023-06-24T15:14:44;9.95;;;6.25;;
11439;SDS011;5776;51.814;4.510;2023-06-24T15:17:11;12.52;;;5.68;;
11439;SDS011;5776;51.814;4.510;2023-06-24T15:19:37;11.25;;;5.80;;
11439;SDS011;5776;51.814;4.510;2023-06-24T15:22:03;8.60;;;5.32;;
11439;SDS011;5776;51.814;4.510;2023-06-24T15:24:29;11.32;;;4.80;;